sensor_id;sensor_type;location;lat;lon;timestamp;P1;durP1;ratioP1;P2;durP2;ratioP2
36391;SDS011;22639;42.690;23.356;2023-07-29T00:00:45;4.13;;;3.38;;
36391;SDS011;22639;42.690;23.356;2023-07-29T00:03:10;4.90;;;3.97;;
36391;SDS011;22639;42.690;23.356;2023-07-29T00:05:39;5.25;;;3.47;;
36391;SDS011;22639;42.690;23.356;2023-07-29T00:08:05;4.20;;;3.20;;
36391;SDS011;22639;42.690;23.356;2023-07-29T00:10:35;4.43;;;3.45;;
36391;SDS011;22639;42.690;23.356;2023-07-29T00:13:01;4.18;;;3.30;;
36391;SDS011;22639;42.690;23.356;2023-07-29T00:15:26;4.00;;;3.63;;
36391;SDS011;22639;42.690;23.356;2023-07-29T00:17:51;3.15;;;2.67;;
36391;SDS011;22639;42.690;23.356;2023-07-29T00:20:17;3.80;;;3.45;;
36391;SDS011;22639;42.690;23.356;2023-07-29T00:22:42;3.70;;;3.40;;
36391;SDS011;22639;42.690;23.356;2023-07-29T00:25:07;3.65;;;3.33;;
36391;SDS011;22639;42.690;23.356;2023-07-29T00:27:32;4.78;;;3.67;;
36391;SDS011;22639;42.690;23.356;2023-07-29T00:29:58;3.20;;;2.88;;
36391;SDS011;22639;42.690;23.356;2023-07-29T00:32:23;5.22;;;3.42;;
36391;SDS011;22639;42.690;23.356;2023-07-29T00:34:48;3.53;;;3.22;;
36391;SDS011;22639;42.690;23.356;2023-07-29T00:37:13;3.80;;;3.50;;
36391;SDS011;22639;42.690;23.356;2023-07-29T00:39:40;4.68;;;3.30;;
36391;SDS011;22639;42.690;23.356;2023-07-29T00:42:06;5.03;;;3.53;;
36391;SDS011;22639;42.690;23.356;2023-07-29T00:44:31;4.78;;;3.40;;
36391;SDS011;22639;42.690;23.356;2023-07-29T00:46:56;3.63;;;2.88;;
36391;SDS011;22639;42.690;23.356;2023-07-29T00:49:22;4.75;;;3.92;;
36391;SDS011;22639;42.690;23.356;2023-07-29T00:51:47;4.18;;;3.25;;
36391;SDS011;22639;42.690;23.356;2023-07-29T00:54:13;3.53;;;3.22;;
36391;SDS011;22639;42.690;23.356;2023-07-29T00:56:39;4.30;;;3.90;;
36391;SDS011;22639;42.690;23.356;2023-07-29T00:59:04;3.60;;;3.30;;
36391;SDS011;22639;42.690;23.356;2023-07-29T01:01:30;4.03;;;3.63;;
36391;SDS011;22639;42.690;23.356;2023-07-29T01:03:55;3.55;;;3.20;;
36391;SDS011;22639;42.690;23.356;2023-07-29T01:08:47;3.85;;;3.45;;
36391;SDS011;22639;42.690;23.356;2023-07-29T01:13:44;4.25;;;3.30;;
36391;SDS011;22639;42.690;23.356;2023-07-29T01:16:11;4.00;;;3.63;;
36391;SDS011;22639;42.690;23.356;2023-07-29T01:18:38;6.05;;;4.13;;
36391;SDS011;22639;42.690;23.356;2023-07-29T01:21:07;4.97;;;3.28;;
36391;SDS011;22639;42.690;23.356;2023-07-29T01:23:33;3.88;;;3.47;;
36391;SDS011;22639;42.690;23.356;2023-07-29T01:25:59;4.25;;;3.10;;
36391;SDS011;22639;42.690;23.356;2023-07-29T01:28:24;4.88;;;3.83;;
36391;SDS011;22639;42.690;23.356;2023-07-29T01:30:51;7.07;;;3.80;;
36391;SDS011;22639;42.690;23.356;2023-07-29T01:33:25;4.22;;;3.83;;
36391;SDS011;22639;42.690;23.356;2023-07-29T01:35:52;4.07;;;3.78;;
36391;SDS011;22639;42.690;23.356;2023-07-29T01:38:21;3.40;;;3.10;;
36391;SDS011;22639;42.690;23.356;2023-07-29T01:40:49;3.95;;;3.45;;
36391;SDS011;22639;42.690;23.356;2023-07-29T01:43:15;4.15;;;3.75;;
36391;SDS011;22639;42.690;23.356;2023-07-29T01:45:42;4.35;;;3.95;;
36391;SDS011;22639;42.690;23.356;2023-07-29T01:48:08;9.45;;;4.20;;
36391;SDS011;22639;42.690;23.356;2023-07-29T01:50:33;5.85;;;3.53;;
36391;SDS011;22639;42.690;23.356;2023-07-29T01:52:59;4.97;;;3.72;;
36391;SDS011;22639;42.690;23.356;2023-07-29T01:55:24;4.47;;;3.42;;
36391;SDS011;22639;42.690;23.356;2023-07-29T01:57:50;4.20;;;3.60;;
36391;SDS011;22639;42.690;23.356;2023-07-29T02:00:16;4.70;;;4.10;;
36391;SDS011;22639;42.690;23.356;2023-07-29T02:02:41;3.97;;;3.58;;
36391;SDS011;22639;42.690;23.356;2023-07-29T02:05:06;7.70;;;3.25;;
36391;SDS011;22639;42.690;23.356;2023-07-29T02:07:32;4.70;;;4.03;;
36391;SDS011;22639;42.690;23.356;2023-07-29T02:09:57;4.93;;;4.43;;
36391;SDS011;22639;42.690;23.356;2023-07-29T02:12:22;4.18;;;3.78;;
36391;SDS011;22639;42.690;23.356;2023-07-29T02:14:48;3.72;;;3.42;;
36391;SDS011;22639;42.690;23.356;2023-07-29T02:17:13;4.88;;;3.42;;
36391;SDS011;22639;42.690;23.356;2023-07-29T02:19:38;4.22;;;3.40;;
36391;SDS011;22639;42.690;23.356;2023-07-29T02:22:03;4.53;;;4.05;;
36391;SDS011;22639;42.690;23.356;2023-07-29T02:24:29;8.02;;;3.80;;
36391;SDS011;22639;42.690;23.356;2023-07-29T02:26:54;4.50;;;3.65;;
36391;SDS011;22639;42.690;23.356;2023-07-29T02:29:19;4.43;;;4.03;;
36391;SDS011;22639;42.690;23.356;2023-07-29T02:31:45;4.40;;;3.95;;
36391;SDS011;22639;42.690;23.356;2023-07-29T02:34:10;6.20;;;4.03;;
36391;SDS011;22639;42.690;23.356;2023-07-29T02:36:35;4.97;;;4.50;;
36391;SDS011;22639;42.690;23.356;2023-07-29T02:39:00;5.43;;;4.38;;
36391;SDS011;22639;42.690;23.356;2023-07-29T02:41:26;4.43;;;4.03;;
36391;SDS011;22639;42.690;23.356;2023-07-29T02:43:51;4.57;;;3.85;;
36391;SDS011;22639;42.690;23.356;2023-07-29T02:46:17;5.35;;;3.95;;
36391;SDS011;22639;42.690;23.356;2023-07-29T02:48:42;6.93;;;4.10;;
36391;SDS011;22639;42.690;23.356;2023-07-29T02:51:07;5.30;;;4.38;;
36391;SDS011;22639;42.690;23.356;2023-07-29T02:53:33;3.97;;;3.67;;
36391;SDS011;22639;42.690;23.356;2023-07-29T02:55:58;6.20;;;4.30;;
36391;SDS011;22639;42.690;23.356;2023-07-29T02:58:24;6.43;;;4.13;;
36391;SDS011;22639;42.690;23.356;2023-07-29T03:00:51;4.82;;;3.97;;
36391;SDS011;22639;42.690;23.356;2023-07-29T03:03:17;4.88;;;4.35;;
36391;SDS011;22639;42.690;23.356;2023-07-29T03:05:42;3.53;;;3.22;;
36391;SDS011;22639;42.690;23.356;2023-07-29T03:08:07;5.90;;;4.68;;
36391;SDS011;22639;42.690;23.356;2023-07-29T03:10:34;4.28;;;3.88;;
36391;SDS011;22639;42.690;23.356;2023-07-29T03:12:59;4.43;;;4.00;;
36391;SDS011;22639;42.690;23.356;2023-07-29T03:15:25;4.70;;;3.90;;
36391;SDS011;22639;42.690;23.356;2023-07-29T03:17:51;4.85;;;4.45;;
36391;SDS011;22639;42.690;23.356;2023-07-29T03:20:16;5.63;;;4.10;;
36391;SDS011;22639;42.690;23.356;2023-07-29T03:22:42;4.07;;;3.67;;
36391;SDS011;22639;42.690;23.356;2023-07-29T03:25:08;7.00;;;4.35;;
36391;SDS011;22639;42.690;23.356;2023-07-29T03:27:33;4.60;;;4.03;;
36391;SDS011;22639;42.690;23.356;2023-07-29T03:30:01;3.97;;;3.55;;
36391;SDS011;22639;42.690;23.356;2023-07-29T03:32:26;4.75;;;4.25;;
36391;SDS011;22639;42.690;23.356;2023-07-29T03:34:52;6.80;;;4.47;;
36391;SDS011;22639;42.690;23.356;2023-07-29T03:37:17;5.95;;;4.65;;
36391;SDS011;22639;42.690;23.356;2023-07-29T03:39:42;4.75;;;4.25;;
36391;SDS011;22639;42.690;23.356;2023-07-29T03:42:07;5.97;;;4.22;;
36391;SDS011;22639;42.690;23.356;2023-07-29T03:44:33;5.35;;;4.20;;
36391;SDS011;22639;42.690;23.356;2023-07-29T03:46:58;5.70;;;4.43;;
36391;SDS011;22639;42.690;23.356;2023-07-29T03:49:23;4.20;;;3.75;;
36391;SDS011;22639;42.690;23.356;2023-07-29T03:51:49;4.78;;;4.22;;
36391;SDS011;22639;42.690;23.356;2023-07-29T03:54:14;4.25;;;3.85;;
36391;SDS011;22639;42.690;23.356;2023-07-29T03:56:39;4.75;;;3.80;;
36391;SDS011;22639;42.690;23.356;2023-07-29T03:59:06;3.83;;;3.42;;
36391;SDS011;22639;42.690;23.356;2023-07-29T04:01:31;4.82;;;4.03;;
36391;SDS011;22639;42.690;23.356;2023-07-29T04:03:57;5.55;;;3.97;;
36391;SDS011;22639;42.690;23.356;2023-07-29T04:06:22;4.78;;;3.90;;
36391;SDS011;22639;42.690;23.356;2023-07-29T04:08:48;5.90;;;3.80;;
36391;SDS011;22639;42.690;23.356;2023-07-29T04:11:13;4.82;;;3.63;;
36391;SDS011;22639;42.690;23.356;2023-07-29T04:13:38;4.28;;;3.67;;
36391;SDS011;22639;42.690;23.356;2023-07-29T04:16:04;4.53;;;3.15;;
36391;SDS011;22639;42.690;23.356;2023-07-29T04:18:29;4.63;;;3.60;;
36391;SDS011;22639;42.690;23.356;2023-07-29T04:20:54;4.40;;;4.00;;
36391;SDS011;22639;42.690;23.356;2023-07-29T04:23:20;4.97;;;3.88;;
36391;SDS011;22639;42.690;23.356;2023-07-29T04:25:45;4.30;;;3.63;;
36391;SDS011;22639;42.690;23.356;2023-07-29T04:28:10;4.30;;;3.83;;
36391;SDS011;22639;42.690;23.356;2023-07-29T04:30:36;4.10;;;3.80;;
36391;SDS011;22639;42.690;23.356;2023-07-29T04:33:01;4.30;;;3.90;;
36391;SDS011;22639;42.690;23.356;2023-07-29T04:35:26;4.95;;;4.45;;
36391;SDS011;22639;42.690;23.356;2023-07-29T04:37:51;5.05;;;3.75;;
36391;SDS011;22639;42.690;23.356;2023-07-29T04:40:17;4.20;;;3.55;;
36391;SDS011;22639;42.690;23.356;2023-07-29T04:42:42;6.30;;;4.63;;
36391;SDS011;22639;42.690;23.356;2023-07-29T04:45:07;4.30;;;3.90;;
36391;SDS011;22639;42.690;23.356;2023-07-29T04:47:32;5.65;;;4.50;;
36391;SDS011;22639;42.690;23.356;2023-07-29T04:49:58;4.90;;;4.18;;
36391;SDS011;22639;42.690;23.356;2023-07-29T04:52:23;4.57;;;3.70;;
36391;SDS011;22639;42.690;23.356;2023-07-29T04:54:48;4.00;;;3.67;;
36391;SDS011;22639;42.690;23.356;2023-07-29T04:57:13;5.05;;;4.55;;
36391;SDS011;22639;42.690;23.356;2023-07-29T04:59:39;4.43;;;4.03;;
36391;SDS011;22639;42.690;23.356;2023-07-29T05:02:04;4.25;;;3.72;;
36391;SDS011;22639;42.690;23.356;2023-07-29T05:04:29;3.65;;;3.33;;
36391;SDS011;22639;42.690;23.356;2023-07-29T05:06:54;6.20;;;3.58;;
36391;SDS011;22639;42.690;23.356;2023-07-29T05:09:20;3.85;;;3.50;;
36391;SDS011;22639;42.690;23.356;2023-07-29T05:11:45;4.35;;;3.40;;
36391;SDS011;22639;42.690;23.356;2023-07-29T05:14:12;5.47;;;3.72;;
36391;SDS011;22639;42.690;23.356;2023-07-29T05:16:37;4.40;;;4.00;;
36391;SDS011;22639;42.690;23.356;2023-07-29T05:19:03;3.90;;;3.50;;
36391;SDS011;22639;42.690;23.356;2023-07-29T05:21:28;4.18;;;3.85;;
36391;SDS011;22639;42.690;23.356;2023-07-29T05:23:53;4.18;;;3.83;;
36391;SDS011;22639;42.690;23.356;2023-07-29T05:26:19;4.97;;;3.72;;
36391;SDS011;22639;42.690;23.356;2023-07-29T05:28:44;4.60;;;4.20;;
36391;SDS011;22639;42.690;23.356;2023-07-29T05:31:09;4.28;;;3.88;;
36391;SDS011;22639;42.690;23.356;2023-07-29T05:33:34;7.68;;;3.80;;
36391;SDS011;22639;42.690;23.356;2023-07-29T05:36:01;4.95;;;4.03;;
36391;SDS011;22639;42.690;23.356;2023-07-29T05:38:26;4.55;;;4.13;;
36391;SDS011;22639;42.690;23.356;2023-07-29T05:40:51;4.57;;;3.95;;
36391;SDS011;22639;42.690;23.356;2023-07-29T05:43:17;4.22;;;3.75;;
36391;SDS011;22639;42.690;23.356;2023-07-29T05:45:42;4.38;;;4.00;;
36391;SDS011;22639;42.690;23.356;2023-07-29T05:48:07;4.75;;;4.28;;
36391;SDS011;22639;42.690;23.356;2023-07-29T05:50:33;4.40;;;3.87;;
36391;SDS011;22639;42.690;23.356;2023-07-29T05:52:58;4.90;;;4.50;;
36391;SDS011;22639;42.690;23.356;2023-07-29T05:55:23;7.20;;;3.88;;
36391;SDS011;22639;42.690;23.356;2023-07-29T05:57:48;5.18;;;4.28;;
36391;SDS011;22639;42.690;23.356;2023-07-29T06:00:14;4.78;;;4.18;;
36391;SDS011;22639;42.690;23.356;2023-07-29T06:02:39;4.75;;;3.90;;
36391;SDS011;22639;42.690;23.356;2023-07-29T06:05:06;8.27;;;4.40;;
36391;SDS011;22639;42.690;23.356;2023-07-29T06:07:31;6.47;;;4.70;;
36391;SDS011;22639;42.690;23.356;2023-07-29T06:09:58;4.60;;;4.20;;
36391;SDS011;22639;42.690;23.356;2023-07-29T06:12:24;6.30;;;3.85;;
36391;SDS011;22639;42.690;23.356;2023-07-29T06:14:49;4.90;;;4.43;;
36391;SDS011;22639;42.690;23.356;2023-07-29T06:17:14;4.70;;;4.30;;
36391;SDS011;22639;42.690;23.356;2023-07-29T06:19:40;6.95;;;4.63;;
36391;SDS011;22639;42.690;23.356;2023-07-29T06:22:05;4.97;;;4.47;;
36391;SDS011;22639;42.690;23.356;2023-07-29T06:24:31;5.22;;;4.72;;
36391;SDS011;22639;42.690;23.356;2023-07-29T06:26:56;5.30;;;4.82;;
36391;SDS011;22639;42.690;23.356;2023-07-29T06:29:21;3.85;;;3.55;;
36391;SDS011;22639;42.690;23.356;2023-07-29T06:31:47;5.63;;;5.13;;
36391;SDS011;22639;42.690;23.356;2023-07-29T06:34:12;5.75;;;4.75;;
36391;SDS011;22639;42.690;23.356;2023-07-29T06:36:37;4.50;;;4.10;;
36391;SDS011;22639;42.690;23.356;2023-07-29T06:39:02;4.80;;;4.37;;
36391;SDS011;22639;42.690;23.356;2023-07-29T06:41:28;4.63;;;4.22;;
36391;SDS011;22639;42.690;23.356;2023-07-29T06:43:53;5.28;;;4.88;;
36391;SDS011;22639;42.690;23.356;2023-07-29T06:46:18;6.03;;;3.90;;
36391;SDS011;22639;42.690;23.356;2023-07-29T06:48:43;4.70;;;4.18;;
36391;SDS011;22639;42.690;23.356;2023-07-29T06:51:09;4.60;;;4.20;;
36391;SDS011;22639;42.690;23.356;2023-07-29T06:53:34;4.75;;;4.35;;
36391;SDS011;22639;42.690;23.356;2023-07-29T06:56:00;5.53;;;4.13;;
36391;SDS011;22639;42.690;23.356;2023-07-29T06:58:25;4.20;;;3.80;;
36391;SDS011;22639;42.690;23.356;2023-07-29T07:00:50;6.80;;;4.82;;
36391;SDS011;22639;42.690;23.356;2023-07-29T07:03:15;6.10;;;4.37;;
36391;SDS011;22639;42.690;23.356;2023-07-29T07:05:41;5.82;;;4.47;;
36391;SDS011;22639;42.690;23.356;2023-07-29T07:08:06;4.57;;;4.17;;
36391;SDS011;22639;42.690;23.356;2023-07-29T07:10:31;7.45;;;4.30;;
36391;SDS011;22639;42.690;23.356;2023-07-29T07:12:58;5.38;;;3.85;;
36391;SDS011;22639;42.690;23.356;2023-07-29T07:15:24;5.13;;;3.88;;
36391;SDS011;22639;42.690;23.356;2023-07-29T07:17:49;4.20;;;3.85;;
36391;SDS011;22639;42.690;23.356;2023-07-29T07:20:14;5.20;;;4.40;;
36391;SDS011;22639;42.690;23.356;2023-07-29T07:22:39;3.70;;;3.42;;
36391;SDS011;22639;42.690;23.356;2023-07-29T07:25:05;5.90;;;4.38;;
36391;SDS011;22639;42.690;23.356;2023-07-29T07:27:30;5.47;;;4.63;;
36391;SDS011;22639;42.690;23.356;2023-07-29T07:29:56;3.85;;;3.50;;
36391;SDS011;22639;42.690;23.356;2023-07-29T07:32:21;4.15;;;3.28;;
36391;SDS011;22639;42.690;23.356;2023-07-29T07:34:48;4.07;;;3.70;;
36391;SDS011;22639;42.690;23.356;2023-07-29T07:37:17;4.80;;;4.30;;
36391;SDS011;22639;42.690;23.356;2023-07-29T07:39:42;4.53;;;4.10;;
36391;SDS011;22639;42.690;23.356;2023-07-29T07:42:07;5.07;;;3.80;;
36391;SDS011;22639;42.690;23.356;2023-07-29T07:44:33;4.13;;;3.70;;
36391;SDS011;22639;42.690;23.356;2023-07-29T07:46:58;4.38;;;4.07;;
36391;SDS011;22639;42.690;23.356;2023-07-29T07:49:25;4.70;;;4.25;;
36391;SDS011;22639;42.690;23.356;2023-07-29T07:51:50;4.45;;;3.58;;
36391;SDS011;22639;42.690;23.356;2023-07-29T07:54:18;4.63;;;4.18;;
36391;SDS011;22639;42.690;23.356;2023-07-29T07:56:43;4.32;;;3.92;;
36391;SDS011;22639;42.690;23.356;2023-07-29T07:59:09;4.30;;;3.90;;
36391;SDS011;22639;42.690;23.356;2023-07-29T08:01:34;4.00;;;3.70;;
36391;SDS011;22639;42.690;23.356;2023-07-29T08:04:00;7.20;;;3.92;;
36391;SDS011;22639;42.690;23.356;2023-07-29T08:06:26;7.68;;;4.10;;
36391;SDS011;22639;42.690;23.356;2023-07-29T08:08:51;4.17;;;3.63;;
36391;SDS011;22639;42.690;23.356;2023-07-29T08:11:16;3.75;;;3.35;;
36391;SDS011;22639;42.690;23.356;2023-07-29T08:13:42;3.60;;;3.28;;
36391;SDS011;22639;42.690;23.356;2023-07-29T08:16:07;4.00;;;3.30;;
36391;SDS011;22639;42.690;23.356;2023-07-29T08:18:32;4.00;;;3.60;;
36391;SDS011;22639;42.690;23.356;2023-07-29T08:20:58;3.85;;;3.35;;
36391;SDS011;22639;42.690;23.356;2023-07-29T08:23:24;4.10;;;3.70;;
36391;SDS011;22639;42.690;23.356;2023-07-29T08:25:53;3.45;;;3.00;;
36391;SDS011;22639;42.690;23.356;2023-07-29T08:28:21;4.30;;;3.90;;
36391;SDS011;22639;42.690;23.356;2023-07-29T08:30:46;4.18;;;3.78;;
36391;SDS011;22639;42.690;23.356;2023-07-29T08:33:11;3.20;;;3.00;;
36391;SDS011;22639;42.690;23.356;2023-07-29T08:35:36;2.85;;;2.65;;
36391;SDS011;22639;42.690;23.356;2023-07-29T08:38:02;3.80;;;2.80;;
36391;SDS011;22639;42.690;23.356;2023-07-29T08:40:27;3.35;;;3.08;;
36391;SDS011;22639;42.690;23.356;2023-07-29T08:42:54;3.20;;;3.00;;
36391;SDS011;22639;42.690;23.356;2023-07-29T08:45:21;5.78;;;3.05;;
36391;SDS011;22639;42.690;23.356;2023-07-29T08:47:47;4.75;;;3.15;;
36391;SDS011;22639;42.690;23.356;2023-07-29T08:50:13;2.60;;;2.40;;
36391;SDS011;22639;42.690;23.356;2023-07-29T08:52:40;3.13;;;2.90;;
36391;SDS011;22639;42.690;23.356;2023-07-29T08:55:07;6.00;;;2.80;;
36391;SDS011;22639;42.690;23.356;2023-07-29T08:57:32;2.70;;;2.30;;
36391;SDS011;22639;42.690;23.356;2023-07-29T08:59:58;3.20;;;2.63;;
36391;SDS011;22639;42.690;23.356;2023-07-29T09:02:25;2.53;;;2.28;;
36391;SDS011;22639;42.690;23.356;2023-07-29T09:04:50;1.98;;;1.73;;
36391;SDS011;22639;42.690;23.356;2023-07-29T09:07:16;2.13;;;1.92;;
36391;SDS011;22639;42.690;23.356;2023-07-29T09:09:41;2.50;;;2.22;;
36391;SDS011;22639;42.690;23.356;2023-07-29T09:12:07;2.30;;;2.10;;
36391;SDS011;22639;42.690;23.356;2023-07-29T09:14:32;2.60;;;2.40;;
36391;SDS011;22639;42.690;23.356;2023-07-29T09:16:57;2.23;;;2.03;;
36391;SDS011;22639;42.690;23.356;2023-07-29T09:19:25;2.33;;;1.92;;
36391;SDS011;22639;42.690;23.356;2023-07-29T09:21:50;2.67;;;1.65;;
36391;SDS011;22639;42.690;23.356;2023-07-29T09:24:16;1.50;;;1.40;;
36391;SDS011;22639;42.690;23.356;2023-07-29T09:26:48;2.67;;;1.58;;
36391;SDS011;22639;42.690;23.356;2023-07-29T09:29:13;2.70;;;1.30;;
36391;SDS011;22639;42.690;23.356;2023-07-29T09:31:39;2.35;;;2.20;;
36391;SDS011;22639;42.690;23.356;2023-07-29T09:34:04;2.73;;;1.80;;
36391;SDS011;22639;42.690;23.356;2023-07-29T09:36:30;2.30;;;1.90;;
36391;SDS011;22639;42.690;23.356;2023-07-29T09:38:56;1.42;;;1.33;;
36391;SDS011;22639;42.690;23.356;2023-07-29T09:41:22;1.80;;;1.70;;
36391;SDS011;22639;42.690;23.356;2023-07-29T09:43:48;2.05;;;1.40;;
36391;SDS011;22639;42.690;23.356;2023-07-29T09:46:19;1.45;;;1.35;;
36391;SDS011;22639;42.690;23.356;2023-07-29T09:48:47;2.15;;;1.70;;
36391;SDS011;22639;42.690;23.356;2023-07-29T09:51:15;1.55;;;1.45;;
36391;SDS011;22639;42.690;23.356;2023-07-29T09:53:44;1.92;;;1.63;;
36391;SDS011;22639;42.690;23.356;2023-07-29T09:56:10;1.30;;;1.20;;
36391;SDS011;22639;42.690;23.356;2023-07-29T09:58:35;1.35;;;1.25;;
36391;SDS011;22639;42.690;23.356;2023-07-29T10:01:03;2.20;;;1.83;;
36391;SDS011;22639;42.690;23.356;2023-07-29T10:03:28;1.58;;;1.45;;
36391;SDS011;22639;42.690;23.356;2023-07-29T10:05:54;2.28;;;1.40;;
36391;SDS011;22639;42.690;23.356;2023-07-29T10:08:20;1.30;;;1.20;;
36391;SDS011;22639;42.690;23.356;2023-07-29T10:10:47;1.95;;;1.65;;
36391;SDS011;22639;42.690;23.356;2023-07-29T10:13:14;1.58;;;1.48;;
36391;SDS011;22639;42.690;23.356;2023-07-29T10:15:40;2.00;;;1.90;;
36391;SDS011;22639;42.690;23.356;2023-07-29T10:18:06;1.30;;;1.23;;
36391;SDS011;22639;42.690;23.356;2023-07-29T10:20:31;1.27;;;1.10;;
36391;SDS011;22639;42.690;23.356;2023-07-29T10:22:58;1.23;;;1.13;;
36391;SDS011;22639;42.690;23.356;2023-07-29T10:25:24;2.53;;;1.40;;
36391;SDS011;22639;42.690;23.356;2023-07-29T10:27:55;1.23;;;1.20;;
36391;SDS011;22639;42.690;23.356;2023-07-29T10:30:21;1.58;;;1.48;;
36391;SDS011;22639;42.690;23.356;2023-07-29T10:32:46;1.60;;;1.50;;
36391;SDS011;22639;42.690;23.356;2023-07-29T10:35:13;1.50;;;1.40;;
36391;SDS011;22639;42.690;23.356;2023-07-29T10:37:38;1.40;;;1.30;;
36391;SDS011;22639;42.690;23.356;2023-07-29T10:40:08;2.20;;;1.33;;
36391;SDS011;22639;42.690;23.356;2023-07-29T10:42:33;1.30;;;1.20;;
36391;SDS011;22639;42.690;23.356;2023-07-29T10:45:00;1.30;;;1.15;;
36391;SDS011;22639;42.690;23.356;2023-07-29T10:47:25;1.63;;;1.53;;
36391;SDS011;22639;42.690;23.356;2023-07-29T10:52:28;1.30;;;1.20;;
36391;SDS011;22639;42.690;23.356;2023-07-29T10:54:53;1.17;;;1.08;;
36391;SDS011;22639;42.690;23.356;2023-07-29T10:57:34;1.67;;;0.80;;
36391;SDS011;22639;42.690;23.356;2023-07-29T11:00:00;1.00;;;0.90;;
36391;SDS011;22639;42.690;23.356;2023-07-29T11:02:30;1.65;;;1.15;;
36391;SDS011;22639;42.690;23.356;2023-07-29T11:04:55;0.60;;;0.60;;
36391;SDS011;22639;42.690;23.356;2023-07-29T11:07:21;0.63;;;0.63;;
36391;SDS011;22639;42.690;23.356;2023-07-29T11:14:59;1.25;;;0.82;;
36391;SDS011;22639;42.690;23.356;2023-07-29T11:17:25;0.80;;;0.80;;
36391;SDS011;22639;42.690;23.356;2023-07-29T11:19:51;0.90;;;0.90;;
36391;SDS011;22639;42.690;23.356;2023-07-29T11:22:16;1.05;;;1.05;;
36391;SDS011;22639;42.690;23.356;2023-07-29T11:24:42;1.10;;;1.10;;
36391;SDS011;22639;42.690;23.356;2023-07-29T11:27:11;0.73;;;0.70;;
36391;SDS011;22639;42.690;23.356;2023-07-29T11:29:36;0.90;;;0.90;;
36391;SDS011;22639;42.690;23.356;2023-07-29T11:32:02;0.83;;;0.83;;
36391;SDS011;22639;42.690;23.356;2023-07-29T11:34:33;0.70;;;0.70;;
36391;SDS011;22639;42.690;23.356;2023-07-29T11:36:58;2.65;;;1.10;;
36391;SDS011;22639;42.690;23.356;2023-07-29T11:39:24;2.22;;;1.10;;
36391;SDS011;22639;42.690;23.356;2023-07-29T11:41:49;1.60;;;1.00;;
36391;SDS011;22639;42.690;23.356;2023-07-29T11:44:17;0.93;;;0.93;;
36391;SDS011;22639;42.690;23.356;2023-07-29T11:46:43;1.00;;;1.00;;
36391;SDS011;22639;42.690;23.356;2023-07-29T11:49:09;0.82;;;0.82;;
36391;SDS011;22639;42.690;23.356;2023-07-29T11:51:34;1.15;;;1.08;;
36391;SDS011;22639;42.690;23.356;2023-07-29T11:53:59;1.00;;;1.00;;
36391;SDS011;22639;42.690;23.356;2023-07-29T11:56:25;1.50;;;1.40;;
36391;SDS011;22639;42.690;23.356;2023-07-29T11:58:50;1.70;;;1.60;;
36391;SDS011;22639;42.690;23.356;2023-07-29T12:01:15;1.30;;;1.20;;
36391;SDS011;22639;42.690;23.356;2023-07-29T12:03:41;1.23;;;1.13;;
36391;SDS011;22639;42.690;23.356;2023-07-29T12:06:07;1.25;;;1.15;;
36391;SDS011;22639;42.690;23.356;2023-07-29T12:08:32;1.20;;;1.10;;
36391;SDS011;22639;42.690;23.356;2023-07-29T12:10:58;0.93;;;0.90;;
36391;SDS011;22639;42.690;23.356;2023-07-29T12:13:23;1.30;;;1.20;;
36391;SDS011;22639;42.690;23.356;2023-07-29T12:15:49;2.13;;;1.45;;
36391;SDS011;22639;42.690;23.356;2023-07-29T12:18:14;0.90;;;0.90;;
36391;SDS011;22639;42.690;23.356;2023-07-29T12:20:40;1.55;;;1.45;;
36391;SDS011;22639;42.690;23.356;2023-07-29T12:23:05;3.28;;;1.75;;
36391;SDS011;22639;42.690;23.356;2023-07-29T12:25:32;1.67;;;1.48;;
36391;SDS011;22639;42.690;23.356;2023-07-29T12:28:03;1.58;;;1.48;;
36391;SDS011;22639;42.690;23.356;2023-07-29T12:30:29;1.48;;;1.38;;
36391;SDS011;22639;42.690;23.356;2023-07-29T12:32:55;1.40;;;1.30;;
36391;SDS011;22639;42.690;23.356;2023-07-29T12:35:20;1.85;;;1.65;;
36391;SDS011;22639;42.690;23.356;2023-07-29T12:37:45;1.40;;;1.30;;
36391;SDS011;22639;42.690;23.356;2023-07-29T12:40:20;1.65;;;1.55;;
36391;SDS011;22639;42.690;23.356;2023-07-29T12:42:46;1.65;;;1.55;;
36391;SDS011;22639;42.690;23.356;2023-07-29T12:45:12;1.95;;;1.75;;
36391;SDS011;22639;42.690;23.356;2023-07-29T12:47:37;2.55;;;1.40;;
36391;SDS011;22639;42.690;23.356;2023-07-29T12:50:02;1.92;;;1.73;;
36391;SDS011;22639;42.690;23.356;2023-07-29T12:52:27;1.50;;;1.40;;
36391;SDS011;22639;42.690;23.356;2023-07-29T12:54:52;4.15;;;1.70;;
36391;SDS011;22639;42.690;23.356;2023-07-29T12:57:18;1.70;;;1.60;;
36391;SDS011;22639;42.690;23.356;2023-07-29T12:59:43;1.40;;;1.30;;
36391;SDS011;22639;42.690;23.356;2023-07-29T13:02:08;2.87;;;1.33;;
36391;SDS011;22639;42.690;23.356;2023-07-29T13:04:33;2.03;;;1.60;;
36391;SDS011;22639;42.690;23.356;2023-07-29T13:06:59;2.10;;;1.58;;
36391;SDS011;22639;42.690;23.356;2023-07-29T13:09:24;1.85;;;1.70;;
36391;SDS011;22639;42.690;23.356;2023-07-29T13:11:50;2.55;;;1.65;;
36391;SDS011;22639;42.690;23.356;2023-07-29T13:14:15;2.87;;;1.70;;
36391;SDS011;22639;42.690;23.356;2023-07-29T13:16:40;1.90;;;1.65;;
36391;SDS011;22639;42.690;23.356;2023-07-29T13:19:06;1.23;;;1.17;;
36391;SDS011;22639;42.690;23.356;2023-07-29T13:21:31;1.45;;;1.35;;
36391;SDS011;22639;42.690;23.356;2023-07-29T13:23:56;1.70;;;1.60;;
36391;SDS011;22639;42.690;23.356;2023-07-29T13:26:21;2.53;;;1.67;;
36391;SDS011;22639;42.690;23.356;2023-07-29T13:28:46;1.67;;;1.58;;
36391;SDS011;22639;42.690;23.356;2023-07-29T13:31:12;1.63;;;1.45;;
36391;SDS011;22639;42.690;23.356;2023-07-29T13:33:38;1.35;;;1.05;;
36391;SDS011;22639;42.690;23.356;2023-07-29T13:36:03;2.60;;;1.73;;
36391;SDS011;22639;42.690;23.356;2023-07-29T13:38:29;2.05;;;1.55;;
36391;SDS011;22639;42.690;23.356;2023-07-29T13:40:54;1.42;;;1.30;;
36391;SDS011;22639;42.690;23.356;2023-07-29T13:43:19;2.00;;;1.60;;
36391;SDS011;22639;42.690;23.356;2023-07-29T13:45:44;2.08;;;1.75;;
36391;SDS011;22639;42.690;23.356;2023-07-29T13:48:10;1.42;;;1.33;;
36391;SDS011;22639;42.690;23.356;2023-07-29T13:50:35;2.22;;;1.33;;
36391;SDS011;22639;42.690;23.356;2023-07-29T13:53:00;1.60;;;1.50;;
36391;SDS011;22639;42.690;23.356;2023-07-29T13:55:25;1.17;;;1.08;;
36391;SDS011;22639;42.690;23.356;2023-07-29T13:57:51;1.73;;;1.45;;
36391;SDS011;22639;42.690;23.356;2023-07-29T14:00:17;3.33;;;1.30;;
36391;SDS011;22639;42.690;23.356;2023-07-29T14:02:42;2.22;;;1.60;;
36391;SDS011;22639;42.690;23.356;2023-07-29T14:05:08;1.42;;;1.33;;
36391;SDS011;22639;42.690;23.356;2023-07-29T14:07:33;1.75;;;1.65;;
36391;SDS011;22639;42.690;23.356;2023-07-29T14:09:59;1.50;;;1.40;;
36391;SDS011;22639;42.690;23.356;2023-07-29T14:12:24;1.90;;;1.77;;
36391;SDS011;22639;42.690;23.356;2023-07-29T14:14:49;1.40;;;1.30;;
36391;SDS011;22639;42.690;23.356;2023-07-29T14:17:14;1.42;;;1.33;;
36391;SDS011;22639;42.690;23.356;2023-07-29T14:19:40;2.58;;;1.35;;
36391;SDS011;22639;42.690;23.356;2023-07-29T14:22:05;1.17;;;1.08;;
36391;SDS011;22639;42.690;23.356;2023-07-29T14:24:30;1.17;;;1.10;;
36391;SDS011;22639;42.690;23.356;2023-07-29T14:26:56;2.65;;;1.73;;
36391;SDS011;22639;42.690;23.356;2023-07-29T14:29:21;1.65;;;1.55;;
36391;SDS011;22639;42.690;23.356;2023-07-29T14:31:46;2.08;;;1.88;;
36391;SDS011;22639;42.690;23.356;2023-07-29T14:34:11;2.42;;;2.10;;
36391;SDS011;22639;42.690;23.356;2023-07-29T14:36:37;4.70;;;1.90;;